createdAt,value
2019-02-21T00:01:18.686Z,100121.66
2019-02-21T00:06:24.321Z,100118.98
2019-02-21T00:11:30.498Z,100129.86
2019-02-21T00:16:36.624Z,100130.66
2019-02-21T00:21:42.702Z,100128.20
2019-02-21T00:26:48.306Z,100130.01
2019-02-21T00:31:54.620Z,100132.31
2019-02-21T00:37:00.705Z,100130.50
2019-02-21T00:42:06.808Z,100135.73
2019-02-21T00:47:13.279Z,100139.86
2019-02-21T00:52:19.372Z,100141.97
2019-02-21T00:57:25.484Z,100140.03
2019-02-21T01:02:31.571Z,100135.91
2019-02-21T01:07:38.201Z,100134.92
2019-02-21T01:12:44.119Z,100135.44
2019-02-21T01:17:49.930Z,100136.57
2019-02-21T01:22:55.609Z,100133.80
2019-02-21T01:28:01.716Z,100131.33
2019-02-21T01:33:07.379Z,100136.42
2019-02-21T01:38:13.282Z,100130.02
2019-02-21T01:43:18.932Z,100126.40
2019-02-21T01:48:24.875Z,100133.32
2019-02-21T01:53:30.555Z,100138.08
2019-02-21T01:58:36.508Z,100135.11
2019-02-21T02:03:42.186Z,100137.09
2019-02-21T02:08:47.944Z,100128.87
2019-02-21T02:13:53.567Z,100133.00
2019-02-21T02:18:59.271Z,100133.47
2019-02-21T02:24:04.954Z,100137.75
2019-02-21T02:29:10.983Z,100139.56
2019-02-21T02:34:16.872Z,100140.52
2019-02-21T02:39:22.483Z,100118.64
2019-02-21T02:44:28.126Z,100119.17
2019-02-21T02:49:33.967Z,100128.25
2019-02-21T02:54:39.580Z,100136.28
2019-02-21T02:59:45.522Z,100147.27
2019-02-21T03:04:51.232Z,100139.22
2019-02-21T03:09:57.085Z,100134.95
2019-02-21T03:15:02.677Z,100138.73
2019-02-21T03:20:09.506Z,100122.02
2019-02-21T03:25:15.173Z,100120.03
2019-02-21T03:30:20.993Z,100125.89
2019-02-21T03:35:26.671Z,100133.89
2019-02-21T03:40:32.782Z,100142.77
2019-02-21T03:45:38.894Z,100143.28
2019-02-21T03:50:44.985Z,100142.98
2019-02-21T03:55:50.698Z,100152.03
2019-02-21T04:00:56.522Z,100146.77
2019-02-21T04:06:02.317Z,100139.88
2019-02-21T04:11:08.209Z,100135.46
2019-02-21T04:16:13.826Z,100141.19
2019-02-21T04:21:19.804Z,100127.75
2019-02-21T04:26:25.674Z,100122.19
2019-02-21T04:31:31.303Z,100121.53
2019-02-21T04:36:36.929Z,100113.16
2019-02-21T04:41:42.670Z,100110.05
2019-02-21T04:46:48.333Z,100108.90
2019-02-21T04:51:54.070Z,100101.16
2019-02-21T04:56:59.674Z,100097.24
2019-02-21T05:02:05.700Z,100100.67
2019-02-21T05:07:11.594Z,100094.77
2019-02-21T05:12:17.412Z,100097.38
2019-02-21T05:17:23.517Z,100096.58
2019-02-21T05:22:29.318Z,100099.05
2019-02-21T05:27:37.834Z,100092.83
2019-02-21T05:32:55.295Z,100091.83
2019-02-21T05:38:10.128Z,100098.73
2019-02-21T05:43:44.220Z,100101.34
2019-02-21T05:49:17.017Z,100109.05
2019-02-21T05:54:31.119Z,100111.67
2019-02-21T06:00:10.806Z,100120.38
2019-02-21T06:05:22.525Z,100119.05
2019-02-21T06:10:59.077Z,100129.05
2019-02-21T06:16:21.541Z,100130.54
2019-02-21T06:21:50.897Z,100128.39
2019-02-21T06:27:15.684Z,100133.15
2019-02-21T06:32:21.595Z,100134.46
2019-02-21T06:37:27.212Z,100145.45
2019-02-21T06:42:33.009Z,100143.62
2019-02-21T06:47:38.671Z,100142.95
2019-02-21T06:52:44.523Z,100147.88
2019-02-21T06:57:50.237Z,100146.37
2019-02-21T07:02:56.444Z,100140.45
2019-02-21T07:08:02.340Z,100142.86
2019-02-21T07:13:07.969Z,100142.33
2019-02-21T07:18:13.822Z,100142.73
2019-02-21T07:23:19.978Z,100139.23
2019-02-21T07:28:27.742Z,100138.03
2019-02-21T07:33:33.278Z,100134.94
2019-02-21T07:38:38.909Z,100144.95
2019-02-21T07:43:45.229Z,100143.32
2019-02-21T07:48:51.024Z,100137.98
2019-02-21T07:53:56.971Z,100145.20
2019-02-21T07:59:03.010Z,100150.16
2019-02-21T08:04:08.775Z,100154.67
2019-02-21T08:09:15.005Z,100160.08
2019-02-21T08:14:20.892Z,100162.08
2019-02-21T08:19:26.872Z,100165.89
2019-02-21T08:24:32.517Z,100162.98
2019-02-21T08:29:38.464Z,100163.89
2019-02-21T08:34:48.276Z,100158.84
2019-02-21T08:39:54.629Z,100152.20
2019-02-21T08:45:00.378Z,100164.30
2019-02-21T08:50:06.328Z,100161.35
2019-02-21T08:55:11.973Z,100158.97
2019-02-21T09:00:17.829Z,100164.51
2019-02-21T09:05:23.739Z,100159.09
2019-02-21T09:10:29.356Z,100161.16
2019-02-21T09:15:35.177Z,100154.80
2019-02-21T09:20:41.126Z,100151.86
2019-02-21T09:25:49.492Z,100146.93
2019-02-21T09:30:54.445Z,100152.33
2019-02-21T09:36:00.283Z,100136.03
2019-02-21T09:41:06.019Z,100139.73
2019-02-21T09:46:12.571Z,100139.14
2019-02-21T09:51:18.537Z,100140.96
2019-02-21T09:56:30.276Z,100135.37
2019-02-21T10:01:32.352Z,100132.55
2019-02-21T10:06:38.382Z,100120.98
2019-02-21T10:11:44.363Z,100118.61
2019-02-21T10:16:50.091Z,100116.09
2019-02-21T10:21:55.774Z,100121.55
2019-02-21T10:27:01.698Z,100114.77
2019-02-21T10:32:07.546Z,100107.79
2019-02-21T10:37:13.310Z,100098.83
2019-02-21T10:42:18.944Z,100101.98
2019-02-21T10:47:24.626Z,100089.55
2019-02-21T10:52:30.656Z,100076.98
2019-02-21T10:57:36.511Z,100078.73
2019-02-21T11:02:42.302Z,100072.31
2019-02-21T11:07:48.531Z,100065.42
2019-02-21T11:12:54.380Z,100064.41
2019-02-21T11:18:00.003Z,100058.56
2019-02-21T11:23:06.623Z,100047.22
2019-02-21T11:28:12.784Z,100038.42
2019-02-21T11:33:18.747Z,100028.61
2019-02-21T11:38:25.013Z,100025.19
2019-02-21T11:43:31.079Z,100022.88
2019-02-21T11:48:36.698Z,100010.56
2019-02-21T11:53:42.533Z,100006.03
2019-02-21T11:58:48.210Z,99999.28
2019-02-21T12:03:54.442Z,99999.25
2019-02-21T12:09:00.370Z,99990.78
2019-02-21T12:14:06.372Z,99982.55
2019-02-21T12:19:12.476Z,99990.12
2019-02-21T12:24:18.110Z,99984.48
2019-02-21T12:29:23.840Z,99979.16
2019-02-21T12:34:29.754Z,99981.55
2019-02-21T12:39:36.397Z,99983.73
2019-02-21T12:44:42.321Z,99973.42
2019-02-21T12:49:48.552Z,99962.18
2019-02-21T12:54:54.481Z,99951.61
2019-02-21T13:00:00.419Z,99960.17
2019-02-21T13:05:06.984Z,99959.86
2019-02-21T13:10:14.654Z,99951.80
2019-02-21T13:15:20.571Z,99949.88
2019-02-21T13:20:26.218Z,99944.66
2019-02-21T13:25:31.926Z,99937.17
2019-02-21T13:30:37.905Z,99930.33
2019-02-21T13:35:52.237Z,99925.58
2019-02-21T13:40:51.476Z,99921.31
2019-02-21T13:45:58.077Z,99909.69
2019-02-21T13:51:03.678Z,99907.25
2019-02-21T13:56:09.482Z,99914.91
2019-02-21T14:01:15.396Z,99905.45
2019-02-21T14:06:21.164Z,99906.54
2019-02-21T14:11:27.148Z,99911.92
2019-02-21T14:16:32.965Z,99904.88
2019-02-21T14:21:38.773Z,99912.91
2019-02-21T14:26:44.932Z,99899.36
2019-02-21T14:31:50.752Z,99894.55
2019-02-21T14:36:56.485Z,99896.38
2019-02-21T14:42:04.502Z,99901.81
2019-02-21T14:47:10.517Z,99903.85
2019-02-21T14:52:16.423Z,99896.48
2019-02-21T14:57:22.093Z,99888.31
2019-02-21T15:02:28.357Z,99900.70
2019-02-21T15:07:34.365Z,99898.16
2019-02-21T15:12:40.360Z,99897.50
2019-02-21T15:17:46.595Z,99902.45
2019-02-21T15:22:53.996Z,99905.09
2019-02-21T15:28:00.064Z,99900.46
2019-02-21T15:33:06.380Z,99892.88
2019-02-21T15:38:19.900Z,99892.09
2019-02-21T15:43:20.027Z,99901.54
2019-02-21T15:48:26.093Z,99918.11
2019-02-21T15:53:32.174Z,99905.63
2019-02-21T15:58:38.309Z,99916.95
2019-02-21T16:03:44.606Z,99928.11
2019-02-21T16:08:50.382Z,99922.14
2019-02-21T16:14:03.351Z,99924.60
2019-02-21T16:19:04.391Z,99932.08
2019-02-21T16:24:10.078Z,99933.31
2019-02-21T16:29:16.109Z,99929.64
2019-02-21T16:34:22.214Z,99933.63
2019-02-21T16:39:28.349Z,99933.20
2019-02-21T16:44:33.960Z,99942.89
2019-02-21T16:49:39.924Z,99944.30
2019-02-21T16:54:46.249Z,99949.20
2019-02-21T16:59:52.190Z,99945.80
2019-02-21T17:04:58.578Z,99946.56
2019-02-21T17:10:04.628Z,99940.87
2019-02-21T17:15:11.918Z,99955.22
2019-02-21T17:20:18.150Z,99957.83
2019-02-21T17:25:24.005Z,99950.64
2019-02-21T17:30:29.775Z,99949.77
2019-02-21T17:35:35.516Z,99956.09
2019-02-21T17:40:41.338Z,99961.38
2019-02-21T17:45:47.539Z,99951.92
2019-02-21T17:50:53.913Z,99948.88
2019-02-21T17:55:59.559Z,99943.81
2019-02-21T18:01:05.612Z,99938.17
2019-02-21T18:06:11.351Z,99944.61
2019-02-21T18:11:17.422Z,99936.77
2019-02-21T18:16:23.311Z,99943.08
2019-02-21T18:21:29.413Z,99929.20
2019-02-21T18:26:35.097Z,99931.68
2019-02-21T18:31:41.433Z,99926.81
2019-02-21T18:36:47.230Z,99921.23
2019-02-21T18:41:53.463Z,99920.59
2019-02-21T18:46:59.639Z,99907.65
2019-02-21T18:52:05.385Z,99910.13
2019-02-21T18:57:12.317Z,99910.77
2019-02-21T19:02:19.931Z,99906.16
2019-02-21T19:07:25.589Z,99898.34
2019-02-21T19:12:31.967Z,99898.47
2019-02-21T19:17:37.577Z,99902.11
2019-02-21T19:22:43.388Z,99888.20
2019-02-21T19:27:49.121Z,99889.36
2019-02-21T19:32:54.870Z,99880.67
2019-02-21T19:38:09.813Z,99878.55
2019-02-21T19:43:08.015Z,99870.18
2019-02-21T19:48:13.732Z,99866.08
2019-02-21T19:53:19.422Z,99859.98
2019-02-21T19:58:25.273Z,99856.37
2019-02-21T20:03:30.880Z,99851.97
2019-02-21T20:08:39.627Z,99848.85
2019-02-21T20:13:45.400Z,99835.77
2019-02-21T20:18:51.137Z,99839.52
2019-02-21T20:23:56.768Z,99836.55
2019-02-21T20:29:02.573Z,99828.70
2019-02-21T20:34:08.257Z,99823.96
2019-02-21T20:39:14.142Z,99819.67
2019-02-21T20:44:19.748Z,99811.16
2019-02-21T20:49:25.560Z,99818.19
2019-02-21T20:54:31.385Z,99806.55
2019-02-21T20:59:37.131Z,99799.00
2019-02-21T21:04:42.838Z,99801.63
2019-02-21T21:09:48.722Z,99798.22
2019-02-21T21:14:54.364Z,99794.11
2019-02-21T21:20:00.335Z,99785.42
2019-02-21T21:25:07.180Z,99781.00
2019-02-21T21:30:13.034Z,99786.56
2019-02-21T21:35:19.083Z,99776.21
2019-02-21T21:40:25.173Z,99779.61
2019-02-21T21:45:30.814Z,99769.47
2019-02-21T21:50:36.512Z,99774.01
2019-02-21T21:55:42.180Z,99765.18
2019-02-21T22:00:48.434Z,99760.03
2019-02-21T22:05:54.596Z,99753.29
2019-02-21T22:11:01.105Z,99758.63
2019-02-21T22:16:07.752Z,99754.88
2019-02-21T22:21:14.045Z,99750.62
2019-02-21T22:26:20.379Z,99752.20
2019-02-21T22:31:26.732Z,99745.50
2019-02-21T22:36:32.926Z,99741.11
2019-02-21T22:41:39.449Z,99739.44
2019-02-21T22:46:45.992Z,99738.40
2019-02-21T22:51:52.171Z,99733.83
2019-02-21T22:56:58.223Z,99723.83
2019-02-21T23:02:04.492Z,99720.20
2019-02-21T23:07:42.328Z,99701.38
2019-02-21T23:12:47.240Z,99703.97
2019-02-21T23:17:53.312Z,99692.28
2019-02-21T23:22:59.522Z,99699.16
2019-02-21T23:28:06.061Z,99691.45
2019-02-21T23:33:12.743Z,99696.89
2019-02-21T23:38:19.342Z,99696.20
2019-02-21T23:43:26.096Z,99684.58
2019-02-21T23:48:32.839Z,99685.03
2019-02-21T23:53:38.206Z,99687.66
2019-02-21T23:58:44.524Z,99688.83
